createdAt,value
2017-10-03T00:01:57.153Z,14.30
2017-10-03T00:04:24.660Z,14.40
2017-10-03T00:06:52.150Z,14.40
2017-10-03T00:09:20.418Z,14.30
2017-10-03T00:11:47.901Z,14.20
2017-10-03T00:14:16.490Z,14.10
2017-10-03T00:16:43.978Z,14.10
2017-10-03T00:19:11.458Z,14.10
2017-10-03T00:21:38.946Z,14.10
2017-10-03T00:24:07.251Z,14.10
2017-10-03T00:26:34.751Z,14.00
2017-10-03T00:29:02.243Z,14.00
2017-10-03T00:31:30.509Z,14.00
2017-10-03T00:33:58.778Z,14.00
2017-10-03T00:36:26.414Z,14.00
2017-10-03T00:38:53.894Z,14.10
2017-10-03T00:41:21.385Z,14.10
2017-10-03T00:43:49.663Z,14.10
2017-10-03T00:46:17.155Z,14.00
2017-10-03T00:48:44.654Z,14.00
2017-10-03T00:51:12.142Z,14.00
2017-10-03T00:53:39.642Z,13.90
2017-10-03T00:56:07.132Z,13.90
2017-10-03T00:58:35.387Z,13.90
2017-10-03T01:01:02.895Z,13.80
2017-10-03T01:03:30.389Z,13.90
2017-10-03T01:05:57.882Z,13.90
2017-10-03T01:08:26.133Z,13.80
2017-10-03T01:10:53.659Z,13.80
2017-10-03T01:13:21.141Z,13.80
2017-10-03T01:15:48.630Z,13.80
2017-10-03T01:18:16.110Z,13.70
2017-10-03T01:20:44.371Z,13.70
2017-10-03T01:23:13.535Z,13.70
2017-10-03T01:25:41.017Z,13.60
2017-10-03T01:28:08.507Z,13.70
2017-10-03T01:30:36.010Z,13.70
2017-10-03T01:33:03.528Z,13.70
2017-10-03T01:35:31.011Z,13.70
2017-10-03T01:38:06.344Z,13.60
2017-10-03T01:40:33.835Z,13.60
2017-10-03T01:43:01.314Z,13.60
2017-10-03T01:45:28.817Z,13.60
2017-10-03T01:47:56.302Z,13.60
2017-10-03T01:50:23.794Z,13.60
2017-10-03T01:52:52.069Z,13.50
2017-10-03T01:55:20.591Z,13.50
2017-10-03T01:57:48.066Z,13.40
2017-10-03T02:00:15.551Z,13.50
2017-10-03T02:02:43.053Z,13.40
2017-10-03T02:05:10.559Z,13.40
2017-10-03T02:07:38.071Z,13.30
2017-10-03T02:10:05.557Z,13.30
2017-10-03T02:12:33.305Z,13.30
2017-10-03T02:15:00.799Z,13.30
2017-10-03T02:17:28.282Z,13.30
2017-10-03T02:19:56.566Z,13.30
2017-10-03T02:22:24.830Z,13.30
2017-10-03T02:24:53.149Z,13.30
2017-10-03T02:27:20.641Z,13.30
2017-10-03T02:29:48.134Z,13.30
2017-10-03T02:32:16.392Z,13.40
2017-10-03T02:34:43.886Z,13.30
2017-10-03T02:37:11.394Z,13.30
2017-10-03T02:39:38.883Z,13.30
2017-10-03T02:42:07.154Z,13.30
2017-10-03T02:44:34.642Z,13.30
2017-10-03T02:47:02.141Z,13.40
2017-10-03T02:49:29.629Z,13.40
2017-10-03T02:51:57.883Z,13.50
2017-10-03T02:54:25.390Z,13.40
2017-10-03T02:56:52.873Z,13.50
2017-10-03T02:59:20.374Z,13.40
2017-10-03T03:01:47.934Z,13.50
2017-10-03T03:04:15.451Z,13.50
2017-10-03T03:06:42.934Z,13.50
2017-10-03T03:09:10.419Z,13.50
2017-10-03T03:11:38.683Z,13.40
2017-10-03T03:14:06.179Z,13.40
2017-10-03T03:16:33.677Z,13.40
2017-10-03T03:19:01.155Z,13.50
2017-10-03T03:21:28.650Z,13.40
2017-10-03T03:23:56.143Z,13.40
2017-10-03T03:26:23.985Z,13.40
2017-10-03T03:28:51.473Z,13.40
2017-10-03T03:31:18.958Z,13.40
2017-10-03T03:33:46.454Z,13.40
2017-10-03T03:36:13.941Z,13.30
2017-10-03T03:38:41.431Z,13.30
2017-10-03T03:41:08.926Z,13.30
2017-10-03T03:43:36.696Z,13.30
2017-10-03T03:46:04.191Z,13.30
2017-10-03T03:48:31.687Z,13.20
2017-10-03T03:50:59.966Z,13.20
2017-10-03T03:53:28.263Z,13.20
2017-10-03T03:55:55.835Z,13.10
2017-10-03T03:58:23.315Z,13.20
2017-10-03T04:00:50.806Z,13.20
2017-10-03T04:03:19.061Z,13.20
2017-10-03T04:05:46.564Z,13.10
2017-10-03T04:08:14.814Z,13.20
2017-10-03T04:10:42.295Z,13.10
2017-10-03T04:13:10.573Z,13.20
2017-10-03T04:15:38.059Z,13.10
2017-10-03T04:18:05.554Z,13.20
2017-10-03T04:20:33.033Z,13.20
2017-10-03T04:23:01.302Z,13.20
2017-10-03T04:25:28.790Z,13.10
2017-10-03T04:27:56.494Z,13.20
2017-10-03T04:30:23.979Z,13.10
2017-10-03T04:32:51.458Z,13.10
2017-10-03T04:35:19.727Z,13.10
2017-10-03T04:37:48.042Z,13.00
2017-10-03T04:40:15.559Z,13.00
2017-10-03T04:42:43.810Z,13.00
2017-10-03T04:45:11.306Z,13.00
2017-10-03T04:47:39.559Z,13.00
2017-10-03T04:50:07.814Z,13.00
2017-10-03T04:52:35.307Z,12.90
2017-10-03T04:55:03.562Z,13.00
2017-10-03T04:57:31.066Z,12.90
2017-10-03T04:59:58.546Z,13.00
2017-10-03T05:02:26.049Z,12.90
2017-10-03T05:04:53.526Z,12.90
2017-10-03T05:07:21.782Z,12.90
2017-10-03T05:09:49.255Z,12.80
2017-10-03T05:12:17.497Z,12.90
2017-10-03T05:14:45.012Z,12.80
2017-10-03T05:17:12.498Z,12.90
2017-10-03T05:19:39.990Z,12.90
2017-10-03T05:22:07.484Z,12.90
2017-10-03T05:24:34.992Z,12.80
2017-10-03T05:27:02.474Z,12.80
2017-10-03T05:29:30.740Z,12.70
2017-10-03T05:31:58.230Z,12.70
2017-10-03T05:34:26.517Z,12.70
2017-10-03T05:36:54.013Z,12.70
2017-10-03T05:39:21.495Z,12.70
2017-10-03T05:41:49.006Z,12.70
2017-10-03T05:44:16.490Z,12.70
2017-10-03T05:46:43.982Z,12.70
2017-10-03T05:49:12.250Z,12.60
2017-10-03T05:51:40.527Z,12.60
2017-10-03T05:54:08.779Z,12.60
2017-10-03T05:56:36.575Z,12.60
2017-10-03T05:59:04.834Z,12.70
2017-10-03T06:01:32.310Z,12.60
2017-10-03T06:04:00.570Z,12.70
2017-10-03T06:06:28.074Z,12.70
2017-10-03T06:08:55.571Z,12.70
2017-10-03T06:11:23.050Z,12.80
2017-10-03T06:13:50.538Z,12.80
2017-10-03T06:16:18.782Z,12.90
2017-10-03T06:18:47.063Z,13.00
2017-10-03T06:21:15.322Z,13.00
2017-10-03T06:23:42.814Z,12.90
2017-10-03T06:26:11.060Z,13.00
2017-10-03T06:28:38.858Z,13.00
2017-10-03T06:31:06.347Z,13.10
2017-10-03T06:33:33.830Z,13.10
2017-10-03T06:36:01.356Z,13.10
2017-10-03T06:38:28.863Z,13.20
2017-10-03T06:40:56.358Z,13.20
2017-10-03T06:43:23.850Z,13.20
2017-10-03T06:45:51.342Z,13.20
2017-10-03T06:48:19.601Z,13.20
2017-10-03T06:50:47.392Z,13.20
2017-10-03T06:53:15.642Z,13.30
2017-10-03T06:55:43.120Z,13.30
2017-10-03T06:58:10.655Z,13.30
2017-10-03T07:00:38.133Z,13.40
2017-10-03T07:03:05.626Z,13.40
2017-10-03T07:05:33.106Z,13.40
2017-10-03T07:08:00.611Z,13.40
2017-10-03T07:10:28.862Z,13.50
2017-10-03T07:12:56.449Z,13.40
2017-10-03T07:15:24.706Z,13.60
2017-10-03T07:17:52.195Z,13.60
2017-10-03T07:20:20.454Z,14.00
2017-10-03T07:22:47.951Z,13.90
2017-10-03T07:25:15.439Z,14.20
2017-10-03T07:27:42.977Z,14.40
2017-10-03T07:30:10.720Z,14.70
2017-10-03T07:32:38.972Z,15.10
2017-10-03T07:35:06.455Z,15.00
2017-10-03T07:37:34.719Z,15.10
2017-10-03T07:40:02.984Z,15.10
2017-10-03T07:42:30.490Z,15.00
2017-10-03T07:44:57.979Z,15.00
2017-10-03T07:47:25.471Z,15.00
2017-10-03T07:49:53.728Z,14.90
2017-10-03T07:52:21.627Z,14.90
2017-10-03T07:54:49.120Z,14.90
2017-10-03T07:57:16.598Z,14.90
2017-10-03T07:59:44.868Z,15.90
2017-10-03T08:02:12.359Z,15.80
2017-10-03T08:04:40.634Z,18.00
2017-10-03T08:07:08.113Z,18.00
2017-10-03T08:09:36.379Z,19.60
2017-10-03T08:12:04.623Z,20.50
2017-10-03T08:14:32.422Z,20.40
2017-10-03T08:17:00.666Z,21.40
2017-10-03T08:19:28.151Z,21.30
2017-10-03T08:21:56.403Z,21.60
2017-10-03T08:24:23.923Z,21.60
2017-10-03T08:26:51.415Z,21.90
2017-10-03T08:29:18.902Z,22.60
2017-10-03T08:31:47.318Z,22.00
2017-10-03T08:34:14.851Z,22.00
2017-10-03T08:36:42.710Z,21.30
2017-10-03T08:39:11.036Z,19.80
2017-10-03T08:41:38.843Z,19.70
2017-10-03T08:44:06.549Z,19.30
2017-10-03T08:46:34.034Z,19.60
2017-10-03T08:49:01.557Z,19.70
2017-10-03T08:51:29.042Z,19.70
2017-10-03T08:53:56.546Z,19.60
2017-10-03T08:56:24.825Z,20.30
2017-10-03T08:58:53.098Z,19.80
2017-10-03T09:01:21.413Z,19.20
2017-10-03T09:03:49.275Z,19.10
2017-10-03T09:06:16.850Z,19.20
2017-10-03T09:08:44.375Z,19.90
2017-10-03T09:11:12.724Z,19.70
2017-10-03T09:13:40.350Z,19.60
2017-10-03T09:16:07.870Z,19.00
2017-10-03T09:18:36.172Z,19.00
2017-10-03T09:21:03.745Z,19.00
2017-10-03T09:23:31.252Z,19.30
2017-10-03T09:25:59.845Z,19.10
2017-10-03T09:28:28.109Z,19.90
2017-10-03T09:30:56.363Z,20.50
2017-10-03T09:33:23.876Z,20.40
2017-10-03T09:35:52.126Z,21.10
2017-10-03T09:38:19.632Z,21.10
2017-10-03T09:40:47.350Z,20.70
2017-10-03T09:43:15.622Z,20.20
2017-10-03T09:45:43.882Z,20.40
2017-10-03T09:48:11.608Z,20.40
2017-10-03T09:50:39.191Z,20.80
2017-10-03T09:53:06.698Z,21.40
2017-10-03T09:55:35.077Z,22.80
2017-10-03T09:58:03.388Z,22.20
2017-10-03T10:00:31.236Z,22.20
2017-10-03T10:02:58.847Z,21.80
2017-10-03T10:05:26.368Z,22.00
2017-10-03T10:07:53.870Z,22.00
2017-10-03T10:10:21.356Z,21.10
2017-10-03T10:12:49.942Z,20.50
2017-10-03T10:15:18.207Z,20.40
2017-10-03T10:17:45.819Z,20.30
2017-10-03T10:20:13.319Z,20.30
2017-10-03T10:22:40.863Z,19.80
2017-10-03T10:25:08.522Z,19.40
2017-10-03T10:27:36.017Z,19.00
2017-10-03T10:30:04.310Z,18.50
2017-10-03T10:32:31.824Z,18.50
2017-10-03T10:34:59.726Z,18.20
2017-10-03T10:37:27.269Z,18.10
2017-10-03T10:39:55.550Z,18.30
2017-10-03T10:42:23.844Z,18.50
2017-10-03T10:44:51.332Z,18.40
2017-10-03T10:47:18.848Z,18.40
2017-10-03T10:49:47.111Z,18.40
2017-10-03T10:52:15.430Z,19.00
2017-10-03T10:54:42.915Z,19.00
2017-10-03T10:57:10.410Z,20.10
2017-10-03T10:59:37.900Z,20.80
2017-10-03T11:02:05.468Z,21.40
2017-10-03T11:04:33.811Z,21.70
2017-10-03T11:07:02.066Z,21.60
2017-10-03T11:09:29.555Z,21.50
2017-10-03T11:11:57.039Z,21.70
2017-10-03T11:14:24.542Z,21.40
2017-10-03T11:16:52.157Z,21.00
2017-10-03T11:19:20.618Z,20.90
2017-10-03T11:21:48.243Z,20.80
2017-10-03T11:24:27.974Z,20.30
2017-10-03T11:26:55.457Z,19.80
2017-10-03T11:29:22.936Z,19.40
2017-10-03T11:31:51.199Z,19.10
2017-10-03T11:34:19.472Z,19.30
2017-10-03T11:36:47.760Z,19.50
2017-10-03T11:39:16.001Z,19.50
2017-10-03T11:41:43.496Z,19.50
2017-10-03T11:44:11.747Z,19.80
2017-10-03T11:46:39.514Z,19.70
2017-10-03T11:49:07.002Z,19.90
2017-10-03T11:51:34.488Z,20.60
2017-10-03T11:54:01.978Z,21.20
2017-10-03T11:56:29.462Z,22.10
2017-10-03T11:58:57.744Z,23.70
2017-10-03T12:01:25.995Z,24.60
2017-10-03T12:03:53.506Z,24.60
2017-10-03T12:06:20.992Z,24.80
2017-10-03T12:08:48.495Z,24.00
2017-10-03T12:11:16.756Z,22.20
2017-10-03T12:13:45.330Z,21.50
2017-10-03T12:16:12.826Z,21.50
2017-10-03T12:18:41.114Z,20.50
2017-10-03T12:21:08.642Z,20.40
2017-10-03T12:23:36.894Z,19.70
2017-10-03T12:26:04.477Z,19.70
2017-10-03T12:28:31.963Z,19.70
2017-10-03T12:30:59.461Z,20.90
2017-10-03T12:33:27.087Z,22.30
2017-10-03T12:35:54.934Z,23.00
2017-10-03T12:38:23.233Z,25.30
2017-10-03T12:40:50.732Z,25.20
2017-10-03T12:43:18.279Z,25.20
2017-10-03T12:45:45.771Z,24.20
2017-10-03T12:48:13.408Z,23.00
2017-10-03T12:50:40.885Z,21.60
2017-10-03T12:53:08.399Z,20.60
2017-10-03T12:55:35.884Z,19.80
2017-10-03T12:58:03.374Z,19.50
2017-10-03T13:00:31.628Z,21.60
2017-10-03T13:02:59.417Z,21.60
2017-10-03T13:05:27.674Z,24.50
2017-10-03T13:07:55.178Z,24.40
2017-10-03T13:10:22.683Z,25.50
2017-10-03T13:12:50.249Z,26.20
2017-10-03T13:15:17.761Z,26.60
2017-10-03T13:17:45.241Z,26.60
2017-10-03T13:20:12.746Z,25.80
2017-10-03T13:22:41.070Z,23.10
2017-10-03T13:25:08.578Z,23.00
2017-10-03T13:27:36.875Z,21.40
2017-10-03T13:30:04.635Z,21.40
2017-10-03T13:32:32.896Z,20.70
2017-10-03T13:35:01.326Z,20.90
2017-10-03T13:37:28.853Z,20.80
2017-10-03T13:39:57.223Z,23.20
2017-10-03T13:42:25.576Z,23.20
2017-10-03T13:44:53.188Z,23.20
2017-10-03T13:47:20.857Z,22.90
2017-10-03T13:49:48.342Z,22.40
2017-10-03T13:52:16.092Z,21.80
2017-10-03T13:54:43.651Z,21.30
2017-10-03T13:57:11.171Z,21.10
2017-10-03T13:59:39.460Z,20.80
2017-10-03T14:02:07.003Z,20.80
2017-10-03T14:04:35.279Z,22.80
2017-10-03T14:07:03.584Z,23.80
2017-10-03T14:09:31.114Z,23.70
2017-10-03T14:11:59.365Z,22.30
2017-10-03T14:14:26.861Z,22.30
2017-10-03T14:16:54.431Z,21.50
2017-10-03T14:19:22.396Z,20.90
2017-10-03T14:21:49.950Z,20.50
2017-10-03T14:24:17.439Z,20.50
2017-10-03T14:26:44.943Z,20.60
2017-10-03T14:29:12.436Z,20.40
2017-10-03T14:31:39.968Z,20.10
2017-10-03T14:34:08.227Z,19.60
2017-10-03T14:36:35.730Z,19.60
2017-10-03T14:39:03.227Z,19.50
2017-10-03T14:41:31.034Z,19.30
2017-10-03T14:43:59.286Z,19.00
2017-10-03T14:46:26.995Z,18.90
2017-10-03T14:48:54.595Z,18.90
2017-10-03T14:51:22.101Z,18.80
2017-10-03T14:53:50.426Z,18.70
2017-10-03T14:56:17.918Z,18.70
2017-10-03T14:58:46.199Z,19.30
2017-10-03T15:01:14.446Z,19.60
2017-10-03T15:03:42.263Z,19.50
2017-10-03T15:06:09.745Z,19.70
2017-10-03T15:08:37.238Z,20.20
2017-10-03T15:11:04.751Z,20.60
2017-10-03T15:13:32.247Z,20.50
2017-10-03T15:16:00.042Z,20.30
2017-10-03T15:18:28.287Z,19.80
2017-10-03T15:20:55.875Z,19.80
2017-10-03T15:23:24.154Z,19.40
2017-10-03T15:25:52.763Z,19.20
2017-10-03T15:28:20.265Z,19.10
2017-10-03T15:30:47.778Z,19.00
2017-10-03T15:33:15.273Z,18.90
2017-10-03T15:35:42.771Z,18.80
2017-10-03T15:38:11.036Z,18.60
2017-10-03T15:40:38.553Z,18.60
2017-10-03T15:43:06.083Z,18.50
2017-10-03T15:45:33.623Z,18.40
2017-10-03T15:48:02.000Z,18.10
2017-10-03T15:50:30.256Z,18.00
2017-10-03T15:52:57.868Z,18.00
2017-10-03T15:55:25.390Z,18.00
2017-10-03T15:57:52.892Z,17.90
2017-10-03T16:00:20.430Z,17.90
2017-10-03T16:02:48.701Z,17.70
2017-10-03T16:05:16.973Z,17.70
2017-10-03T16:07:45.280Z,17.60
2017-10-03T16:10:12.798Z,17.60
2017-10-03T16:12:41.054Z,17.30
2017-10-03T16:15:08.574Z,17.30
2017-10-03T16:17:36.068Z,17.20
2017-10-03T16:20:03.563Z,17.30
2017-10-03T16:22:31.823Z,17.60
2017-10-03T16:24:59.339Z,17.50
2017-10-03T16:27:26.846Z,17.70
2017-10-03T16:29:55.839Z,17.80
2017-10-03T16:32:24.138Z,17.90
2017-10-03T16:34:51.658Z,17.80
2017-10-03T16:37:19.328Z,17.80
2017-10-03T16:39:46.809Z,17.60
2017-10-03T16:42:15.076Z,17.00
2017-10-03T16:44:43.331Z,16.80
2017-10-03T16:47:10.835Z,16.70
2017-10-03T16:49:38.322Z,16.60
2017-10-03T16:52:06.175Z,16.40
2017-10-03T16:54:33.659Z,16.20
2017-10-03T16:57:01.135Z,16.00
2017-10-03T16:59:28.750Z,15.80
2017-10-03T17:01:56.278Z,15.70
2017-10-03T17:04:24.690Z,15.40
2017-10-03T17:06:52.183Z,15.40
2017-10-03T17:09:19.690Z,15.30
2017-10-03T17:11:47.184Z,15.20
2017-10-03T17:14:14.684Z,15.20
2017-10-03T17:16:42.950Z,15.00
2017-10-03T17:19:11.212Z,14.90
2017-10-03T17:21:38.719Z,14.80
2017-10-03T17:24:06.223Z,14.80
2017-10-03T17:26:33.834Z,14.70
2017-10-03T17:29:01.323Z,14.70
2017-10-03T17:31:28.834Z,14.60
2017-10-03T17:33:57.102Z,14.50
2017-10-03T17:36:25.367Z,14.40
2017-10-03T17:38:52.850Z,14.30
2017-10-03T17:41:21.118Z,14.40
2017-10-03T17:43:49.366Z,14.30
2017-10-03T17:46:16.866Z,14.20
2017-10-03T17:48:44.366Z,14.30
2017-10-03T17:51:11.842Z,14.30
2017-10-03T17:53:39.338Z,14.20
2017-10-03T17:56:07.626Z,14.10
2017-10-03T17:58:35.155Z,14.00
2017-10-03T18:01:02.638Z,14.00
2017-10-03T18:03:30.889Z,14.00
2017-10-03T18:05:58.387Z,13.90
2017-10-03T18:08:26.194Z,13.90
2017-10-03T18:10:53.679Z,13.90
2017-10-03T18:13:21.962Z,13.80
2017-10-03T18:15:50.254Z,13.70
2017-10-03T18:18:18.686Z,13.70
2017-10-03T18:20:46.167Z,13.70
2017-10-03T18:23:14.474Z,13.60
2017-10-03T18:25:42.543Z,13.50
2017-10-03T18:28:11.454Z,13.60
2017-10-03T18:30:38.959Z,13.50
2017-10-03T18:33:06.567Z,13.50
2017-10-03T18:35:34.068Z,13.40
2017-10-03T18:38:01.555Z,13.40
2017-10-03T18:40:30.015Z,13.40
2017-10-03T18:42:57.541Z,13.30
2017-10-03T18:45:25.025Z,13.40
2017-10-03T18:47:52.510Z,13.40
2017-10-03T18:50:20.787Z,13.30
2017-10-03T18:52:49.046Z,13.30
2017-10-03T18:55:16.538Z,13.20
2017-10-03T18:57:44.023Z,13.30
2017-10-03T19:00:11.528Z,13.20
2017-10-03T19:02:39.658Z,13.20
2017-10-03T19:05:08.179Z,13.10
2017-10-03T19:07:36.430Z,13.00
2017-10-03T19:10:03.918Z,13.00
2017-10-03T19:12:32.187Z,13.00
2017-10-03T19:14:59.666Z,12.90
2017-10-03T19:17:27.914Z,12.90
2017-10-03T19:19:55.411Z,12.80
2017-10-03T19:22:23.662Z,12.80
2017-10-03T19:24:51.926Z,12.80
2017-10-03T19:27:19.402Z,12.70
2017-10-03T19:29:47.666Z,12.70
2017-10-03T19:32:15.162Z,12.70
2017-10-03T19:34:42.647Z,12.70
2017-10-03T19:37:10.148Z,12.70
2017-10-03T19:39:37.627Z,12.60
2017-10-03T19:42:05.879Z,12.60
2017-10-03T19:44:33.383Z,12.50
2017-10-03T19:47:00.871Z,12.50
2017-10-03T19:49:28.350Z,12.50
2017-10-03T19:51:55.842Z,12.40
2017-10-03T19:54:23.341Z,12.40
2017-10-03T19:56:51.166Z,12.30
2017-10-03T19:59:18.650Z,12.30
2017-10-03T20:01:46.202Z,12.30
2017-10-03T20:04:13.701Z,12.20
2017-10-03T20:06:41.202Z,12.20
2017-10-03T20:09:08.711Z,12.20
2017-10-03T20:11:36.203Z,12.20
2017-10-03T20:14:04.462Z,12.10
2017-10-03T20:16:32.065Z,12.10
2017-10-03T20:18:59.566Z,12.10
2017-10-03T20:21:27.078Z,12.10
2017-10-03T20:23:54.564Z,12.10
2017-10-03T20:26:22.834Z,12.10
2017-10-03T20:28:50.333Z,12.10
2017-10-03T20:31:17.901Z,12.10
2017-10-03T20:33:46.155Z,12.10
2017-10-03T20:36:13.655Z,12.10
2017-10-03T20:38:41.905Z,12.10
2017-10-03T20:41:10.169Z,12.10
2017-10-03T20:43:37.650Z,12.00
2017-10-03T20:46:05.915Z,12.00
2017-10-03T20:48:33.405Z,12.00
2017-10-03T20:51:00.916Z,12.00
2017-10-03T20:53:28.402Z,12.00
2017-10-03T20:55:56.671Z,11.90
2017-10-03T20:58:24.147Z,11.90
2017-10-03T21:00:52.398Z,11.90
2017-10-03T21:03:19.890Z,11.80
2017-10-03T21:05:47.383Z,11.80
2017-10-03T21:08:14.895Z,11.70
2017-10-03T21:10:43.138Z,11.50
2017-10-03T21:13:10.626Z,11.50
2017-10-03T21:15:38.979Z,11.40
2017-10-03T21:18:06.466Z,11.40
2017-10-03T21:20:35.042Z,11.30
2017-10-03T21:23:03.290Z,11.20
2017-10-03T21:25:30.767Z,11.20
2017-10-03T21:27:58.271Z,11.20
2017-10-03T21:30:25.828Z,11.20
2017-10-03T21:32:53.323Z,11.10
2017-10-03T21:35:20.914Z,11.10
2017-10-03T21:37:49.174Z,11.10
2017-10-03T21:40:16.763Z,11.00
2017-10-03T21:42:56.907Z,11.00
2017-10-03T21:45:25.198Z,11.00
2017-10-03T21:47:53.454Z,11.00
2017-10-03T21:50:21.698Z,10.90
2017-10-03T21:52:49.192Z,10.90
2017-10-03T21:55:17.448Z,10.90
2017-10-03T21:57:46.455Z,10.70
2017-10-03T22:00:14.763Z,10.80
2017-10-03T22:02:42.607Z,10.70
2017-10-03T22:05:10.863Z,10.70
2017-10-03T22:07:38.454Z,10.70
2017-10-03T22:10:07.627Z,10.80
2017-10-03T22:12:35.119Z,10.70
2017-10-03T22:15:02.621Z,10.80
2017-10-03T22:17:30.108Z,10.90
2017-10-03T22:19:57.675Z,10.90
2017-10-03T22:22:25.938Z,10.90
2017-10-03T22:24:53.431Z,10.80
2017-10-03T22:27:21.684Z,10.90
2017-10-03T22:29:49.955Z,10.90
2017-10-03T22:32:17.440Z,10.80
2017-10-03T22:34:44.923Z,10.90
2017-10-03T22:37:12.487Z,10.80
2017-10-03T22:39:39.966Z,10.80
2017-10-03T22:42:07.454Z,10.80
2017-10-03T22:44:35.739Z,10.80
2017-10-03T22:47:04.141Z,10.80
2017-10-03T22:49:31.633Z,10.70
2017-10-03T22:52:04.726Z,10.80
2017-10-03T22:54:32.206Z,10.80
2017-10-03T22:57:00.482Z,10.80
2017-10-03T22:59:27.965Z,10.70
2017-10-03T23:01:56.221Z,10.70
2017-10-03T23:04:24.510Z,10.60
2017-10-03T23:06:52.786Z,10.60
2017-10-03T23:09:21.167Z,10.60
2017-10-03T23:11:49.450Z,10.60
2017-10-03T23:14:16.960Z,10.60
2017-10-03T23:16:44.442Z,10.60
2017-10-03T23:19:12.016Z,10.70
2017-10-03T23:21:40.280Z,10.70
2017-10-03T23:24:07.762Z,10.70
2017-10-03T23:26:36.048Z,10.80
2017-10-03T23:29:03.595Z,10.70
2017-10-03T23:31:31.857Z,10.80
2017-10-03T23:34:00.140Z,10.70
2017-10-03T23:36:27.703Z,10.60
2017-10-03T23:38:55.975Z,10.70
2017-10-03T23:41:24.226Z,10.60
2017-10-03T23:43:51.802Z,10.60
2017-10-03T23:46:20.094Z,10.70
2017-10-03T23:48:48.367Z,10.70
2017-10-03T23:51:16.642Z,10.70
2017-10-03T23:53:44.887Z,10.80
2017-10-03T23:56:12.386Z,10.70
2017-10-03T23:58:40.634Z,10.90
